METAR Data
IDs: Format: Raw Decoded Include TAF

Data at: 0237 UTC 29 May 2022

KSIY 290153Z AUTO 28016G24KT 10SM FEW055 16/03 A2983 RMK AO2 PK WND 27026/0114 SLP103 T01610028